sensor_id;sensor_type;location;lat;lon;timestamp;P1;durP1;ratioP1;P2;durP2;ratioP2
28252;SDS011;15515;45.588;5.276;2022-11-04T00:01:36;5.55;;;3.70;;
28252;SDS011;15515;45.588;5.276;2022-11-04T00:04:04;6.18;;;3.35;;
28252;SDS011;15515;45.588;5.276;2022-11-04T00:06:32;6.80;;;3.70;;
28252;SDS011;15515;45.588;5.276;2022-11-04T00:08:59;3.20;;;2.90;;
28252;SDS011;15515;45.588;5.276;2022-11-04T00:11:26;5.55;;;3.20;;
28252;SDS011;15515;45.588;5.276;2022-11-04T00:14:13;6.00;;;2.85;;
28252;SDS011;15515;45.588;5.276;2022-11-04T00:16:40;4.25;;;2.85;;
28252;SDS011;15515;45.588;5.276;2022-11-04T00:19:27;4.65;;;3.03;;
28252;SDS011;15515;45.588;5.276;2022-11-04T00:21:54;6.53;;;4.18;;
28252;SDS011;15515;45.588;5.276;2022-11-04T00:24:40;7.95;;;4.47;;
28252;SDS011;15515;45.588;5.276;2022-11-04T00:27:11;7.82;;;4.72;;
28252;SDS011;15515;45.588;5.276;2022-11-04T00:29:57;6.47;;;4.57;;
28252;SDS011;15515;45.588;5.276;2022-11-04T00:32:25;6.07;;;3.67;;
28252;SDS011;15515;45.588;5.276;2022-11-04T00:35:11;4.57;;;3.13;;
28252;SDS011;15515;45.588;5.276;2022-11-04T00:37:39;8.88;;;3.05;;
28252;SDS011;15515;45.588;5.276;2022-11-04T00:40:08;4.18;;;3.25;;
28252;SDS011;15515;45.588;5.276;2022-11-04T00:42:35;5.72;;;3.50;;
28252;SDS011;15515;45.588;5.276;2022-11-04T00:45:03;4.30;;;3.53;;
28252;SDS011;15515;45.588;5.276;2022-11-04T00:47:31;7.32;;;4.13;;
28252;SDS011;15515;45.588;5.276;2022-11-04T00:49:58;13.65;;;5.00;;
28252;SDS011;15515;45.588;5.276;2022-11-04T00:52:27;8.23;;;6.03;;
28252;SDS011;15515;45.588;5.276;2022-11-04T00:54:54;6.28;;;5.68;;
28252;SDS011;15515;45.588;5.276;2022-11-04T00:57:22;6.57;;;5.03;;
28252;SDS011;15515;45.588;5.276;2022-11-04T00:59:49;8.60;;;4.55;;
28252;SDS011;15515;45.588;5.276;2022-11-04T01:02:16;9.85;;;4.72;;
28252;SDS011;15515;45.588;5.276;2022-11-04T01:04:45;5.32;;;4.38;;
28252;SDS011;15515;45.588;5.276;2022-11-04T01:07:12;6.40;;;3.58;;
28252;SDS011;15515;45.588;5.276;2022-11-04T01:09:40;6.03;;;3.40;;
28252;SDS011;15515;45.588;5.276;2022-11-04T01:12:07;5.95;;;3.33;;
28252;SDS011;15515;45.588;5.276;2022-11-04T01:14:34;4.82;;;3.10;;
28252;SDS011;15515;45.588;5.276;2022-11-04T01:17:02;4.25;;;2.80;;
28252;SDS011;15515;45.588;5.276;2022-11-04T01:19:29;4.85;;;3.15;;
28252;SDS011;15515;45.588;5.276;2022-11-04T01:21:56;4.43;;;2.78;;
28252;SDS011;15515;45.588;5.276;2022-11-04T01:24:24;6.97;;;2.90;;
28252;SDS011;15515;45.588;5.276;2022-11-04T01:26:51;5.15;;;2.60;;
28252;SDS011;15515;45.588;5.276;2022-11-04T01:29:18;3.38;;;2.65;;
28252;SDS011;15515;45.588;5.276;2022-11-04T01:31:46;6.10;;;2.70;;
28252;SDS011;15515;45.588;5.276;2022-11-04T01:34:14;3.60;;;2.17;;
28252;SDS011;15515;45.588;5.276;2022-11-04T01:36:42;4.32;;;2.22;;
28252;SDS011;15515;45.588;5.276;2022-11-04T01:39:10;2.92;;;2.40;;
28252;SDS011;15515;45.588;5.276;2022-11-04T01:41:38;4.75;;;2.58;;
28252;SDS011;15515;45.588;5.276;2022-11-04T01:46:51;4.32;;;2.90;;
28252;SDS011;15515;45.588;5.276;2022-11-04T01:51:51;4.13;;;3.10;;
28252;SDS011;15515;45.588;5.276;2022-11-04T01:54:20;5.95;;;3.28;;
28252;SDS011;15515;45.588;5.276;2022-11-04T01:56:47;8.00;;;4.25;;
28252;SDS011;15515;45.588;5.276;2022-11-04T01:59:18;4.45;;;3.75;;
28252;SDS011;15515;45.588;5.276;2022-11-04T02:01:46;5.15;;;3.72;;
28252;SDS011;15515;45.588;5.276;2022-11-04T02:04:14;5.80;;;4.63;;
28252;SDS011;15515;45.588;5.276;2022-11-04T02:07:03;8.02;;;7.22;;
28252;SDS011;15515;45.588;5.276;2022-11-04T02:09:32;9.73;;;7.53;;
28252;SDS011;15515;45.588;5.276;2022-11-04T02:12:00;7.45;;;6.72;;
28252;SDS011;15515;45.588;5.276;2022-11-04T02:14:47;8.43;;;6.15;;
28252;SDS011;15515;45.588;5.276;2022-11-04T02:30:03;4.90;;;3.15;;
28252;SDS011;15515;45.588;5.276;2022-11-04T02:32:56;5.57;;;3.33;;
28252;SDS011;15515;45.588;5.276;2022-11-04T02:35:22;4.72;;;2.95;;
28252;SDS011;15515;45.588;5.276;2022-11-04T02:45:47;5.32;;;2.10;;
28252;SDS011;15515;45.588;5.276;2022-11-04T02:50:50;4.85;;;2.17;;
28252;SDS011;15515;45.588;5.276;2022-11-04T02:53:20;2.88;;;2.30;;
28252;SDS011;15515;45.588;5.276;2022-11-04T02:55:50;3.30;;;2.10;;
28252;SDS011;15515;45.588;5.276;2022-11-04T02:58:30;4.68;;;2.40;;
28252;SDS011;15515;45.588;5.276;2022-11-04T03:00:59;4.20;;;2.47;;
28252;SDS011;15515;45.588;5.276;2022-11-04T03:03:30;4.15;;;1.98;;
28252;SDS011;15515;45.588;5.276;2022-11-04T03:05:59;3.22;;;1.70;;
28252;SDS011;15515;45.588;5.276;2022-11-04T03:11:05;6.95;;;1.85;;
28252;SDS011;15515;45.588;5.276;2022-11-04T03:13:36;4.20;;;1.42;;
28252;SDS011;15515;45.588;5.276;2022-11-04T03:16:06;2.97;;;1.88;;
28252;SDS011;15515;45.588;5.276;2022-11-04T03:21:06;3.20;;;2.10;;
28252;SDS011;15515;45.588;5.276;2022-11-04T03:23:35;4.50;;;2.00;;
28252;SDS011;15515;45.588;5.276;2022-11-04T03:26:08;6.55;;;1.73;;
28252;SDS011;15515;45.588;5.276;2022-11-04T03:28:50;5.50;;;2.10;;
28252;SDS011;15515;45.588;5.276;2022-11-04T03:31:22;4.87;;;2.53;;
28252;SDS011;15515;45.588;5.276;2022-11-04T03:33:50;8.15;;;2.50;;
28252;SDS011;15515;45.588;5.276;2022-11-04T03:36:18;8.25;;;2.20;;
28252;SDS011;15515;45.588;5.276;2022-11-04T03:38:46;4.07;;;1.90;;
28252;SDS011;15515;45.588;5.276;2022-11-04T03:41:16;3.22;;;1.88;;
28252;SDS011;15515;45.588;5.276;2022-11-04T03:43:44;3.80;;;1.98;;
28252;SDS011;15515;45.588;5.276;2022-11-04T03:46:13;3.10;;;2.40;;
28252;SDS011;15515;45.588;5.276;2022-11-04T03:48:40;4.45;;;2.70;;
28252;SDS011;15515;45.588;5.276;2022-11-04T03:51:10;7.95;;;2.35;;
28252;SDS011;15515;45.588;5.276;2022-11-04T03:53:37;4.45;;;2.13;;
28252;SDS011;15515;45.588;5.276;2022-11-04T04:03:51;5.18;;;2.03;;
28252;SDS011;15515;45.588;5.276;2022-11-04T04:06:20;8.02;;;2.13;;
28252;SDS011;15515;45.588;5.276;2022-11-04T04:08:54;5.43;;;1.67;;
28252;SDS011;15515;45.588;5.276;2022-11-04T04:11:30;5.45;;;2.15;;
28252;SDS011;15515;45.588;5.276;2022-11-04T04:16:38;7.15;;;2.58;;
28252;SDS011;15515;45.588;5.276;2022-11-04T04:21:36;7.45;;;2.47;;
28252;SDS011;15515;45.588;5.276;2022-11-04T04:24:06;3.40;;;2.30;;
28252;SDS011;15515;45.588;5.276;2022-11-04T04:26:53;4.03;;;2.42;;
28252;SDS011;15515;45.588;5.276;2022-11-04T04:29:40;6.25;;;2.83;;
28252;SDS011;15515;45.588;5.276;2022-11-04T04:32:09;7.05;;;2.97;;
28252;SDS011;15515;45.588;5.276;2022-11-04T04:34:36;9.68;;;3.20;;
28252;SDS011;15515;45.588;5.276;2022-11-04T04:37:06;7.75;;;2.80;;
28252;SDS011;15515;45.588;5.276;2022-11-04T04:42:30;4.40;;;2.50;;
28252;SDS011;15515;45.588;5.276;2022-11-04T04:45:21;5.97;;;1.65;;
28252;SDS011;15515;45.588;5.276;2022-11-04T04:47:50;4.28;;;1.10;;
28252;SDS011;15515;45.588;5.276;2022-11-04T04:50:19;3.00;;;0.75;;
28252;SDS011;15515;45.588;5.276;2022-11-04T04:52:47;5.00;;;0.75;;
28252;SDS011;15515;45.588;5.276;2022-11-04T04:55:15;1.42;;;0.77;;
28252;SDS011;15515;45.588;5.276;2022-11-04T04:57:44;1.92;;;0.73;;
28252;SDS011;15515;45.588;5.276;2022-11-04T05:00:13;3.15;;;0.65;;
28252;SDS011;15515;45.588;5.276;2022-11-04T05:02:41;1.88;;;0.68;;
28252;SDS011;15515;45.588;5.276;2022-11-04T05:05:09;4.20;;;0.80;;
28252;SDS011;15515;45.588;5.276;2022-11-04T05:07:36;2.97;;;1.08;;
28252;SDS011;15515;45.588;5.276;2022-11-04T05:10:04;2.47;;;0.60;;
28252;SDS011;15515;45.588;5.276;2022-11-04T05:12:35;5.28;;;0.93;;
28252;SDS011;15515;45.588;5.276;2022-11-04T05:15:22;3.60;;;1.27;;
28252;SDS011;15515;45.588;5.276;2022-11-04T05:17:56;3.22;;;1.20;;
28252;SDS011;15515;45.588;5.276;2022-11-04T05:20:24;3.63;;;0.98;;
28252;SDS011;15515;45.588;5.276;2022-11-04T05:22:52;1.13;;;0.80;;
28252;SDS011;15515;45.588;5.276;2022-11-04T05:25:20;4.20;;;1.05;;
28252;SDS011;15515;45.588;5.276;2022-11-04T05:27:47;1.65;;;0.80;;
28252;SDS011;15515;45.588;5.276;2022-11-04T05:30:15;2.20;;;1.02;;
28252;SDS011;15515;45.588;5.276;2022-11-04T05:32:42;3.65;;;0.93;;
28252;SDS011;15515;45.588;5.276;2022-11-04T05:35:09;3.65;;;1.23;;
28252;SDS011;15515;45.588;5.276;2022-11-04T05:37:37;5.55;;;1.58;;
28252;SDS011;15515;45.588;5.276;2022-11-04T05:40:04;2.65;;;0.90;;
28252;SDS011;15515;45.588;5.276;2022-11-04T05:42:32;6.57;;;1.25;;
28252;SDS011;15515;45.588;5.276;2022-11-04T05:44:59;3.50;;;0.90;;
28252;SDS011;15515;45.588;5.276;2022-11-04T05:47:26;4.95;;;1.77;;
28252;SDS011;15515;45.588;5.276;2022-11-04T05:49:54;4.50;;;1.10;;
28252;SDS011;15515;45.588;5.276;2022-11-04T05:52:21;8.15;;;1.30;;
28252;SDS011;15515;45.588;5.276;2022-11-04T05:54:49;2.55;;;0.98;;
28252;SDS011;15515;45.588;5.276;2022-11-04T05:57:16;2.42;;;0.80;;
28252;SDS011;15515;45.588;5.276;2022-11-04T05:59:43;4.10;;;1.02;;
28252;SDS011;15515;45.588;5.276;2022-11-04T06:02:10;2.35;;;0.93;;
28252;SDS011;15515;45.588;5.276;2022-11-04T06:04:38;6.07;;;1.30;;
28252;SDS011;15515;45.588;5.276;2022-11-04T06:07:05;4.72;;;1.20;;
28252;SDS011;15515;45.588;5.276;2022-11-04T06:09:33;2.38;;;0.85;;
28252;SDS011;15515;45.588;5.276;2022-11-04T06:14:34;3.78;;;0.85;;
28252;SDS011;15515;45.588;5.276;2022-11-04T06:17:01;5.32;;;1.08;;
28252;SDS011;15515;45.588;5.276;2022-11-04T06:19:28;4.20;;;0.80;;
28252;SDS011;15515;45.588;5.276;2022-11-04T06:21:56;5.05;;;0.80;;
28252;SDS011;15515;45.588;5.276;2022-11-04T06:24:23;3.00;;;1.00;;
28252;SDS011;15515;45.588;5.276;2022-11-04T06:26:51;5.88;;;1.17;;
28252;SDS011;15515;45.588;5.276;2022-11-04T06:29:18;5.10;;;0.90;;
28252;SDS011;15515;45.588;5.276;2022-11-04T06:31:45;5.32;;;1.48;;
28252;SDS011;15515;45.588;5.276;2022-11-04T06:34:13;3.38;;;0.80;;
28252;SDS011;15515;45.588;5.276;2022-11-04T06:36:40;4.70;;;0.90;;
28252;SDS011;15515;45.588;5.276;2022-11-04T06:39:07;2.95;;;1.02;;
28252;SDS011;15515;45.588;5.276;2022-11-04T06:41:35;4.07;;;1.30;;
28252;SDS011;15515;45.588;5.276;2022-11-04T06:44:02;4.85;;;0.98;;
28252;SDS011;15515;45.588;5.276;2022-11-04T06:46:39;4.05;;;1.23;;
28252;SDS011;15515;45.588;5.276;2022-11-04T06:49:14;3.22;;;0.95;;
28252;SDS011;15515;45.588;5.276;2022-11-04T06:51:43;6.88;;;1.80;;
28252;SDS011;15515;45.588;5.276;2022-11-04T06:54:11;3.75;;;1.30;;
28252;SDS011;15515;45.588;5.276;2022-11-04T06:56:39;4.97;;;1.50;;
28252;SDS011;15515;45.588;5.276;2022-11-04T06:59:07;3.95;;;0.98;;
28252;SDS011;15515;45.588;5.276;2022-11-04T07:01:35;2.17;;;1.05;;
28252;SDS011;15515;45.588;5.276;2022-11-04T07:04:03;4.38;;;1.23;;
28252;SDS011;15515;45.588;5.276;2022-11-04T07:06:30;3.42;;;1.60;;
28252;SDS011;15515;45.588;5.276;2022-11-04T07:08:58;5.32;;;1.05;;
28252;SDS011;15515;45.588;5.276;2022-11-04T07:11:27;3.88;;;0.75;;
28252;SDS011;15515;45.588;5.276;2022-11-04T07:13:55;2.80;;;0.88;;
28252;SDS011;15515;45.588;5.276;2022-11-04T07:16:23;4.10;;;0.80;;
28252;SDS011;15515;45.588;5.276;2022-11-04T07:18:50;4.35;;;1.10;;
28252;SDS011;15515;45.588;5.276;2022-11-04T07:21:20;3.03;;;0.98;;
28252;SDS011;15515;45.588;5.276;2022-11-04T07:23:47;3.05;;;0.82;;
28252;SDS011;15515;45.588;5.276;2022-11-04T07:26:15;1.73;;;0.80;;
28252;SDS011;15515;45.588;5.276;2022-11-04T07:28:42;5.05;;;1.00;;
28252;SDS011;15515;45.588;5.276;2022-11-04T07:31:10;4.82;;;1.17;;
28252;SDS011;15515;45.588;5.276;2022-11-04T07:33:38;2.28;;;0.75;;
28252;SDS011;15515;45.588;5.276;2022-11-04T07:36:06;2.08;;;0.70;;
28252;SDS011;15515;45.588;5.276;2022-11-04T07:38:34;3.17;;;0.85;;
28252;SDS011;15515;45.588;5.276;2022-11-04T07:41:01;10.18;;;2.20;;
28252;SDS011;15515;45.588;5.276;2022-11-04T07:43:29;4.18;;;0.98;;
28252;SDS011;15515;45.588;5.276;2022-11-04T07:48:27;2.90;;;0.60;;
28252;SDS011;15515;45.588;5.276;2022-11-04T07:50:55;2.22;;;0.90;;
28252;SDS011;15515;45.588;5.276;2022-11-04T07:53:22;6.07;;;1.27;;
28252;SDS011;15515;45.588;5.276;2022-11-04T07:55:50;5.03;;;0.90;;
28252;SDS011;15515;45.588;5.276;2022-11-04T07:58:18;7.70;;;1.33;;
28252;SDS011;15515;45.588;5.276;2022-11-04T08:00:45;3.70;;;0.88;;
28252;SDS011;15515;45.588;5.276;2022-11-04T08:03:13;3.65;;;1.05;;
28252;SDS011;15515;45.588;5.276;2022-11-04T08:05:41;3.10;;;1.02;;
28252;SDS011;15515;45.588;5.276;2022-11-04T08:08:08;2.90;;;1.00;;
28252;SDS011;15515;45.588;5.276;2022-11-04T08:10:35;3.72;;;0.90;;
28252;SDS011;15515;45.588;5.276;2022-11-04T08:13:03;1.88;;;0.93;;
28252;SDS011;15515;45.588;5.276;2022-11-04T08:15:31;3.42;;;0.60;;
28252;SDS011;15515;45.588;5.276;2022-11-04T08:18:02;5.82;;;0.88;;
28252;SDS011;15515;45.588;5.276;2022-11-04T08:20:30;1.15;;;0.55;;
28252;SDS011;15515;45.588;5.276;2022-11-04T08:22:57;1.92;;;0.80;;
28252;SDS011;15515;45.588;5.276;2022-11-04T08:25:24;3.90;;;1.15;;
28252;SDS011;15515;45.588;5.276;2022-11-04T08:27:52;1.50;;;0.43;;
28252;SDS011;15515;45.588;5.276;2022-11-04T08:30:22;2.92;;;0.80;;
28252;SDS011;15515;45.588;5.276;2022-11-04T08:32:49;3.47;;;0.90;;
28252;SDS011;15515;45.588;5.276;2022-11-04T08:35:16;4.55;;;0.80;;
28252;SDS011;15515;45.588;5.276;2022-11-04T08:37:44;1.83;;;0.70;;
28252;SDS011;15515;45.588;5.276;2022-11-04T08:40:11;2.05;;;0.70;;
28252;SDS011;15515;45.588;5.276;2022-11-04T08:42:38;5.43;;;1.10;;
28252;SDS011;15515;45.588;5.276;2022-11-04T08:45:06;4.63;;;1.00;;
28252;SDS011;15515;45.588;5.276;2022-11-04T08:47:33;1.77;;;0.70;;
28252;SDS011;15515;45.588;5.276;2022-11-04T08:50:01;1.92;;;0.52;;
28252;SDS011;15515;45.588;5.276;2022-11-04T08:52:28;3.42;;;0.70;;
28252;SDS011;15515;45.588;5.276;2022-11-04T08:54:55;3.22;;;0.80;;
28252;SDS011;15515;45.588;5.276;2022-11-04T08:57:23;2.17;;;0.90;;
28252;SDS011;15515;45.588;5.276;2022-11-04T08:59:50;1.17;;;0.70;;
28252;SDS011;15515;45.588;5.276;2022-11-04T09:02:18;2.22;;;0.60;;
28252;SDS011;15515;45.588;5.276;2022-11-04T09:04:46;4.10;;;1.08;;
28252;SDS011;15515;45.588;5.276;2022-11-04T09:07:13;2.22;;;0.60;;
28252;SDS011;15515;45.588;5.276;2022-11-04T09:09:41;2.00;;;0.80;;
28252;SDS011;15515;45.588;5.276;2022-11-04T09:12:09;4.55;;;0.77;;
28252;SDS011;15515;45.588;5.276;2022-11-04T09:14:36;4.28;;;1.40;;
28252;SDS011;15515;45.588;5.276;2022-11-04T09:17:04;1.60;;;0.80;;
28252;SDS011;15515;45.588;5.276;2022-11-04T09:19:31;2.75;;;1.13;;
28252;SDS011;15515;45.588;5.276;2022-11-04T09:21:59;3.70;;;0.80;;
28252;SDS011;15515;45.588;5.276;2022-11-04T09:24:26;4.35;;;1.17;;
28252;SDS011;15515;45.588;5.276;2022-11-04T09:26:53;5.95;;;0.90;;
28252;SDS011;15515;45.588;5.276;2022-11-04T09:29:21;4.13;;;0.98;;
28252;SDS011;15515;45.588;5.276;2022-11-04T09:31:48;3.83;;;1.20;;
28252;SDS011;15515;45.588;5.276;2022-11-04T09:34:16;5.28;;;0.90;;
28252;SDS011;15515;45.588;5.276;2022-11-04T09:36:43;4.15;;;1.38;;
28252;SDS011;15515;45.588;5.276;2022-11-04T09:39:12;5.50;;;1.40;;
28252;SDS011;15515;45.588;5.276;2022-11-04T09:46:35;7.88;;;1.50;;
28252;SDS011;15515;45.588;5.276;2022-11-04T09:49:04;3.25;;;1.40;;
28252;SDS011;15515;45.588;5.276;2022-11-04T09:51:32;4.97;;;1.35;;
28252;SDS011;15515;45.588;5.276;2022-11-04T09:54:21;5.47;;;1.45;;
28252;SDS011;15515;45.588;5.276;2022-11-04T09:56:50;4.32;;;1.30;;
28252;SDS011;15515;45.588;5.276;2022-11-04T09:59:26;8.38;;;1.40;;
28252;SDS011;15515;45.588;5.276;2022-11-04T10:02:02;7.65;;;1.85;;
28252;SDS011;15515;45.588;5.276;2022-11-04T10:25:00;5.18;;;1.30;;
28252;SDS011;15515;45.588;5.276;2022-11-04T10:27:31;4.05;;;1.27;;
28252;SDS011;15515;45.588;5.276;2022-11-04T10:30:05;3.50;;;1.40;;
28252;SDS011;15515;45.588;5.276;2022-11-04T10:35:02;6.15;;;1.42;;
28252;SDS011;15515;45.588;5.276;2022-11-04T10:37:32;2.42;;;1.02;;
28252;SDS011;15515;45.588;5.276;2022-11-04T10:40:06;5.15;;;1.02;;
28252;SDS011;15515;45.588;5.276;2022-11-04T10:42:41;2.05;;;1.08;;
28252;SDS011;15515;45.588;5.276;2022-11-04T10:45:09;6.82;;;1.15;;
28252;SDS011;15515;45.588;5.276;2022-11-04T10:50:29;2.22;;;1.10;;
28252;SDS011;15515;45.588;5.276;2022-11-04T10:53:13;2.75;;;1.17;;
28252;SDS011;15515;45.588;5.276;2022-11-04T10:58:33;2.90;;;1.27;;
28252;SDS011;15515;45.588;5.276;2022-11-04T11:01:25;2.85;;;1.25;;
28252;SDS011;15515;45.588;5.276;2022-11-04T11:03:53;3.85;;;0.93;;
28252;SDS011;15515;45.588;5.276;2022-11-04T11:06:25;2.30;;;0.90;;
28252;SDS011;15515;45.588;5.276;2022-11-04T11:09:17;7.07;;;2.50;;
28252;SDS011;15515;45.588;5.276;2022-11-04T11:14:14;3.50;;;1.60;;
28252;SDS011;15515;45.588;5.276;2022-11-04T11:16:43;2.97;;;1.77;;
28252;SDS011;15515;45.588;5.276;2022-11-04T11:21:56;5.43;;;1.30;;
28252;SDS011;15515;45.588;5.276;2022-11-04T11:24:24;2.65;;;1.88;;
28252;SDS011;15515;45.588;5.276;2022-11-04T11:26:53;3.20;;;1.30;;
28252;SDS011;15515;45.588;5.276;2022-11-04T11:29:23;5.18;;;1.35;;
28252;SDS011;15515;45.588;5.276;2022-11-04T11:31:51;6.07;;;1.10;;
28252;SDS011;15515;45.588;5.276;2022-11-04T11:34:23;4.40;;;1.80;;
28252;SDS011;15515;45.588;5.276;2022-11-04T11:36:52;3.08;;;1.23;;
28252;SDS011;15515;45.588;5.276;2022-11-04T11:39:21;6.30;;;1.63;;
28252;SDS011;15515;45.588;5.276;2022-11-04T11:47:04;4.90;;;1.40;;
28252;SDS011;15515;45.588;5.276;2022-11-04T11:49:34;3.25;;;1.17;;
28252;SDS011;15515;45.588;5.276;2022-11-04T11:54:45;2.47;;;1.13;;
28252;SDS011;15515;45.588;5.276;2022-11-04T11:57:22;2.97;;;0.90;;
28252;SDS011;15515;45.588;5.276;2022-11-04T11:59:54;3.40;;;1.00;;
28252;SDS011;15515;45.588;5.276;2022-11-04T12:05:26;7.90;;;1.67;;
28252;SDS011;15515;45.588;5.276;2022-11-04T12:11:36;6.22;;;1.70;;
28252;SDS011;15515;45.588;5.276;2022-11-04T12:14:01;10.63;;;2.10;;
28252;SDS011;15515;45.588;5.276;2022-11-04T12:16:47;6.40;;;2.97;;
28252;SDS011;15515;45.588;5.276;2022-11-04T12:19:34;7.78;;;2.30;;
28252;SDS011;15515;45.588;5.276;2022-11-04T12:27:16;5.63;;;2.60;;
28252;SDS011;15515;45.588;5.276;2022-11-04T12:29:51;5.40;;;1.77;;
28252;SDS011;15515;45.588;5.276;2022-11-04T12:32:26;7.38;;;2.47;;
28252;SDS011;15515;45.588;5.276;2022-11-04T12:42:41;2.05;;;1.02;;
28252;SDS011;15515;45.588;5.276;2022-11-04T12:45:24;7.50;;;3.22;;
28252;SDS011;15515;45.588;5.276;2022-11-04T12:47:59;4.43;;;1.80;;
28252;SDS011;15515;45.588;5.276;2022-11-04T13:01:24;4.20;;;1.58;;
28252;SDS011;15515;45.588;5.276;2022-11-04T13:04:07;4.28;;;1.23;;
28252;SDS011;15515;45.588;5.276;2022-11-04T13:06:37;6.47;;;2.78;;
28252;SDS011;15515;45.588;5.276;2022-11-04T13:11:49;6.13;;;2.85;;
28252;SDS011;15515;45.588;5.276;2022-11-04T13:14:20;4.53;;;1.70;;
28252;SDS011;15515;45.588;5.276;2022-11-04T13:16:59;2.33;;;1.25;;
28252;SDS011;15515;45.588;5.276;2022-11-04T13:19:34;12.52;;;4.32;;
28252;SDS011;15515;45.588;5.276;2022-11-04T13:22:05;5.45;;;1.77;;
28252;SDS011;15515;45.588;5.276;2022-11-04T13:24:34;4.80;;;1.50;;
28252;SDS011;15515;45.588;5.276;2022-11-04T13:27:24;5.07;;;1.33;;
28252;SDS011;15515;45.588;5.276;2022-11-04T13:29:56;3.22;;;1.48;;
28252;SDS011;15515;45.588;5.276;2022-11-04T13:32:28;2.78;;;1.20;;
28252;SDS011;15515;45.588;5.276;2022-11-04T13:40:13;7.53;;;3.47;;
28252;SDS011;15515;45.588;5.276;2022-11-04T13:45:48;12.00;;;2.13;;
28252;SDS011;15515;45.588;5.276;2022-11-04T13:48:17;19.17;;;11.75;;
28252;SDS011;15515;45.588;5.276;2022-11-04T13:50:53;9.07;;;3.75;;
28252;SDS011;15515;45.588;5.276;2022-11-04T13:53:22;7.43;;;3.15;;
28252;SDS011;15515;45.588;5.276;2022-11-04T13:56:05;8.95;;;2.92;;
28252;SDS011;15515;45.588;5.276;2022-11-04T13:58:53;4.97;;;2.13;;
28252;SDS011;15515;45.588;5.276;2022-11-04T14:03:51;4.40;;;2.20;;
28252;SDS011;15515;45.588;5.276;2022-11-04T14:06:46;5.00;;;3.03;;
28252;SDS011;15515;45.588;5.276;2022-11-04T14:09:22;23.60;;;13.13;;
28252;SDS011;15515;45.588;5.276;2022-11-04T14:14:39;7.35;;;4.07;;
28252;SDS011;15515;45.588;5.276;2022-11-04T14:25:21;4.15;;;2.10;;
28252;SDS011;15515;45.588;5.276;2022-11-04T14:28:00;3.80;;;1.73;;
28252;SDS011;15515;45.588;5.276;2022-11-04T14:30:41;5.30;;;2.38;;
28252;SDS011;15515;45.588;5.276;2022-11-04T14:33:18;13.45;;;8.15;;
28252;SDS011;15515;45.588;5.276;2022-11-04T14:35:50;9.10;;;5.35;;
28252;SDS011;15515;45.588;5.276;2022-11-04T14:38:27;8.35;;;3.30;;
28252;SDS011;15515;45.588;5.276;2022-11-04T14:43:42;6.25;;;2.33;;
28252;SDS011;15515;45.588;5.276;2022-11-04T14:46:11;6.05;;;1.92;;
28252;SDS011;15515;45.588;5.276;2022-11-04T14:48:41;4.15;;;1.40;;
28252;SDS011;15515;45.588;5.276;2022-11-04T14:51:19;2.65;;;1.58;;
28252;SDS011;15515;45.588;5.276;2022-11-04T14:53:48;2.90;;;1.10;;
28252;SDS011;15515;45.588;5.276;2022-11-04T14:56:19;5.10;;;1.60;;
28252;SDS011;15515;45.588;5.276;2022-11-04T14:59:02;5.43;;;1.50;;
28252;SDS011;15515;45.588;5.276;2022-11-04T15:01:35;3.30;;;1.38;;
28252;SDS011;15515;45.588;5.276;2022-11-04T15:04:11;4.05;;;1.63;;
28252;SDS011;15515;45.588;5.276;2022-11-04T15:06:40;3.92;;;1.90;;
28252;SDS011;15515;45.588;5.276;2022-11-04T15:09:30;4.28;;;1.77;;
28252;SDS011;15515;45.588;5.276;2022-11-04T15:12:17;5.15;;;2.35;;
28252;SDS011;15515;45.588;5.276;2022-11-04T15:17:49;8.52;;;2.60;;
28252;SDS011;15515;45.588;5.276;2022-11-04T15:20:20;3.53;;;1.95;;
28252;SDS011;15515;45.588;5.276;2022-11-04T15:22:49;4.57;;;2.00;;
28252;SDS011;15515;45.588;5.276;2022-11-04T15:25:17;3.35;;;2.20;;
28252;SDS011;15515;45.588;5.276;2022-11-04T15:27:45;4.38;;;2.10;;
28252;SDS011;15515;45.588;5.276;2022-11-04T15:30:30;5.13;;;1.80;;
28252;SDS011;15515;45.588;5.276;2022-11-04T15:33:01;1.73;;;1.40;;
28252;SDS011;15515;45.588;5.276;2022-11-04T15:35:30;3.20;;;1.50;;
28252;SDS011;15515;45.588;5.276;2022-11-04T15:37:59;4.43;;;1.70;;
28252;SDS011;15515;45.588;5.276;2022-11-04T15:40:27;5.55;;;2.28;;
28252;SDS011;15515;45.588;5.276;2022-11-04T15:42:55;6.93;;;2.10;;
28252;SDS011;15515;45.588;5.276;2022-11-04T15:45:34;4.15;;;1.67;;
28252;SDS011;15515;45.588;5.276;2022-11-04T15:53:28;4.97;;;1.98;;
28252;SDS011;15515;45.588;5.276;2022-11-04T15:55:55;4.75;;;1.90;;
28252;SDS011;15515;45.588;5.276;2022-11-04T15:58:23;4.88;;;1.65;;
28252;SDS011;15515;45.588;5.276;2022-11-04T16:00:54;3.83;;;1.52;;
28252;SDS011;15515;45.588;5.276;2022-11-04T16:03:22;5.40;;;3.20;;
28252;SDS011;15515;45.588;5.276;2022-11-04T16:06:03;6.63;;;2.83;;
28252;SDS011;15515;45.588;5.276;2022-11-04T16:08:31;5.93;;;3.53;;
28252;SDS011;15515;45.588;5.276;2022-11-04T16:11:13;11.15;;;4.47;;
28252;SDS011;15515;45.588;5.276;2022-11-04T16:13:41;8.32;;;3.78;;
28252;SDS011;15515;45.588;5.276;2022-11-04T16:18:43;11.93;;;6.32;;
28252;SDS011;15515;45.588;5.276;2022-11-04T16:21:12;7.13;;;3.95;;
28252;SDS011;15515;45.588;5.276;2022-11-04T16:23:44;5.95;;;3.03;;
28252;SDS011;15515;45.588;5.276;2022-11-04T16:26:12;6.78;;;4.38;;
28252;SDS011;15515;45.588;5.276;2022-11-04T16:28:40;12.93;;;6.55;;
28252;SDS011;15515;45.588;5.276;2022-11-04T16:33:47;8.82;;;5.32;;
28252;SDS011;15515;45.588;5.276;2022-11-04T16:36:15;8.50;;;4.82;;
28252;SDS011;15515;45.588;5.276;2022-11-04T16:41:21;12.40;;;6.70;;
28252;SDS011;15515;45.588;5.276;2022-11-04T16:43:48;16.42;;;10.40;;
28252;SDS011;15515;45.588;5.276;2022-11-04T16:46:16;12.65;;;9.52;;
28252;SDS011;15515;45.588;5.276;2022-11-04T16:48:44;14.27;;;9.57;;
28252;SDS011;15515;45.588;5.276;2022-11-04T16:51:16;7.57;;;3.47;;
28252;SDS011;15515;45.588;5.276;2022-11-04T16:53:46;7.13;;;3.28;;
28252;SDS011;15515;45.588;5.276;2022-11-04T16:56:15;8.80;;;5.85;;
28252;SDS011;15515;45.588;5.276;2022-11-04T16:58:42;4.47;;;2.30;;
28252;SDS011;15515;45.588;5.276;2022-11-04T17:01:10;5.63;;;2.42;;
28252;SDS011;15515;45.588;5.276;2022-11-04T17:03:41;10.32;;;7.47;;
28252;SDS011;15515;45.588;5.276;2022-11-04T17:06:09;16.90;;;5.05;;
28252;SDS011;15515;45.588;5.276;2022-11-04T17:08:38;8.20;;;5.85;;
28252;SDS011;15515;45.588;5.276;2022-11-04T17:11:07;3.63;;;1.77;;
28252;SDS011;15515;45.588;5.276;2022-11-04T17:13:35;6.95;;;4.13;;
28252;SDS011;15515;45.588;5.276;2022-11-04T17:16:03;11.90;;;6.78;;
28252;SDS011;15515;45.588;5.276;2022-11-04T17:18:31;3.13;;;1.88;;
28252;SDS011;15515;45.588;5.276;2022-11-04T17:21:00;5.03;;;3.30;;
28252;SDS011;15515;45.588;5.276;2022-11-04T17:23:28;4.53;;;2.55;;
28252;SDS011;15515;45.588;5.276;2022-11-04T17:25:56;9.20;;;4.40;;
28252;SDS011;15515;45.588;5.276;2022-11-04T17:28:23;6.15;;;4.25;;
28252;SDS011;15515;45.588;5.276;2022-11-04T17:30:52;4.18;;;2.80;;
28252;SDS011;15515;45.588;5.276;2022-11-04T17:33:19;5.75;;;3.78;;
28252;SDS011;15515;45.588;5.276;2022-11-04T17:35:48;5.53;;;2.95;;
28252;SDS011;15515;45.588;5.276;2022-11-04T17:38:16;10.50;;;5.72;;
28252;SDS011;15515;45.588;5.276;2022-11-04T17:40:43;5.90;;;1.92;;
28252;SDS011;15515;45.588;5.276;2022-11-04T17:43:29;5.00;;;3.25;;
28252;SDS011;15515;45.588;5.276;2022-11-04T17:46:16;5.53;;;2.83;;
28252;SDS011;15515;45.588;5.276;2022-11-04T17:49:16;7.18;;;3.58;;
28252;SDS011;15515;45.588;5.276;2022-11-04T17:51:45;2.75;;;1.50;;
28252;SDS011;15515;45.588;5.276;2022-11-04T17:54:14;5.38;;;3.60;;
28252;SDS011;15515;45.588;5.276;2022-11-04T17:56:42;7.22;;;4.55;;
28252;SDS011;15515;45.588;5.276;2022-11-04T17:59:09;6.78;;;2.63;;
28252;SDS011;15515;45.588;5.276;2022-11-04T18:01:38;3.95;;;2.22;;
28252;SDS011;15515;45.588;5.276;2022-11-04T18:04:07;3.13;;;2.03;;